sensor_id;sensor_type;location;lat;lon;timestamp;temperature;humidity
21799;DHT22;24973;47.178;15.316;2022-07-24T00:02:09;18.90;99.90
21799;DHT22;24973;47.178;15.316;2022-07-24T00:04:58;18.90;99.90
21799;DHT22;24973;47.178;15.316;2022-07-24T00:07:48;18.90;99.90
21799;DHT22;24973;47.178;15.316;2022-07-24T00:10:37;18.90;99.90
21799;DHT22;24973;47.178;15.316;2022-07-24T00:13:26;18.80;99.90
21799;DHT22;24973;47.178;15.316;2022-07-24T00:16:16;18.80;99.90
21799;DHT22;24973;47.178;15.316;2022-07-24T00:19:04;18.80;99.90
21799;DHT22;24973;47.178;15.316;2022-07-24T00:21:54;18.80;99.90
21799;DHT22;24973;47.178;15.316;2022-07-24T00:24:44;18.80;99.90
21799;DHT22;24973;47.178;15.316;2022-07-24T00:27:33;18.80;99.90
21799;DHT22;24973;47.178;15.316;2022-07-24T00:30:22;18.80;99.90
21799;DHT22;24973;47.178;15.316;2022-07-24T00:33:12;18.80;99.90
21799;DHT22;24973;47.178;15.316;2022-07-24T00:36:01;18.80;99.90
21799;DHT22;24973;47.178;15.316;2022-07-24T00:38:49;18.80;99.90
21799;DHT22;24973;47.178;15.316;2022-07-24T00:41:39;18.70;99.90
21799;DHT22;24973;47.178;15.316;2022-07-24T00:44:28;18.70;99.90
21799;DHT22;24973;47.178;15.316;2022-07-24T00:47:16;18.60;99.90
21799;DHT22;24973;47.178;15.316;2022-07-24T00:50:07;18.60;99.90
21799;DHT22;24973;47.178;15.316;2022-07-24T00:52:57;18.60;99.90
21799;DHT22;24973;47.178;15.316;2022-07-24T00:55:46;18.60;99.90
21799;DHT22;24973;47.178;15.316;2022-07-24T00:58:35;18.70;99.90
21799;DHT22;24973;47.178;15.316;2022-07-24T01:01:23;18.70;99.90
21799;DHT22;24973;47.178;15.316;2022-07-24T01:04:12;18.70;99.90
21799;DHT22;24973;47.178;15.316;2022-07-24T01:07:03;18.70;99.90
21799;DHT22;24973;47.178;15.316;2022-07-24T01:09:52;18.80;99.90
21799;DHT22;24973;47.178;15.316;2022-07-24T01:12:41;18.70;99.90
21799;DHT22;24973;47.178;15.316;2022-07-24T01:15:30;18.70;99.90
21799;DHT22;24973;47.178;15.316;2022-07-24T01:18:19;18.70;99.90
21799;DHT22;24973;47.178;15.316;2022-07-24T01:21:09;18.70;99.90
21799;DHT22;24973;47.178;15.316;2022-07-24T01:23:58;18.70;99.90
21799;DHT22;24973;47.178;15.316;2022-07-24T01:26:47;18.70;99.90
21799;DHT22;24973;47.178;15.316;2022-07-24T01:29:36;18.60;99.90
21799;DHT22;24973;47.178;15.316;2022-07-24T01:32:24;18.60;99.90
21799;DHT22;24973;47.178;15.316;2022-07-24T01:35:13;18.60;99.90
21799;DHT22;24973;47.178;15.316;2022-07-24T01:38:03;18.60;99.90
21799;DHT22;24973;47.178;15.316;2022-07-24T01:40:52;18.60;99.90
21799;DHT22;24973;47.178;15.316;2022-07-24T01:43:41;18.60;99.90
21799;DHT22;24973;47.178;15.316;2022-07-24T01:46:29;18.50;99.90
21799;DHT22;24973;47.178;15.316;2022-07-24T01:49:19;18.50;99.90
21799;DHT22;24973;47.178;15.316;2022-07-24T01:52:08;18.50;99.90
21799;DHT22;24973;47.178;15.316;2022-07-24T01:54:58;18.50;99.90
21799;DHT22;24973;47.178;15.316;2022-07-24T01:57:47;18.40;99.90
21799;DHT22;24973;47.178;15.316;2022-07-24T02:00:36;18.50;99.90
21799;DHT22;24973;47.178;15.316;2022-07-24T02:03:25;18.50;99.90
21799;DHT22;24973;47.178;15.316;2022-07-24T02:06:13;18.60;99.90
21799;DHT22;24973;47.178;15.316;2022-07-24T02:09:03;18.60;99.90
21799;DHT22;24973;47.178;15.316;2022-07-24T02:11:53;18.60;99.90
21799;DHT22;24973;47.178;15.316;2022-07-24T02:14:42;18.50;99.90
21799;DHT22;24973;47.178;15.316;2022-07-24T02:17:31;18.50;99.90
21799;DHT22;24973;47.178;15.316;2022-07-24T02:20:20;18.40;99.90
21799;DHT22;24973;47.178;15.316;2022-07-24T02:23:09;18.40;99.90
21799;DHT22;24973;47.178;15.316;2022-07-24T02:25:58;18.40;99.90
21799;DHT22;24973;47.178;15.316;2022-07-24T02:28:48;18.40;99.90
21799;DHT22;24973;47.178;15.316;2022-07-24T02:31:37;18.50;99.90
21799;DHT22;24973;47.178;15.316;2022-07-24T02:34:26;18.50;99.90
21799;DHT22;24973;47.178;15.316;2022-07-24T02:37:15;18.60;99.90
21799;DHT22;24973;47.178;15.316;2022-07-24T02:40:05;18.50;99.90
21799;DHT22;24973;47.178;15.316;2022-07-24T02:42:55;18.50;99.90
21799;DHT22;24973;47.178;15.316;2022-07-24T02:45:45;18.50;99.90
21799;DHT22;24973;47.178;15.316;2022-07-24T02:48:34;18.40;99.90
21799;DHT22;24973;47.178;15.316;2022-07-24T02:51:23;18.40;99.90
21799;DHT22;24973;47.178;15.316;2022-07-24T02:54:12;18.40;99.90
21799;DHT22;24973;47.178;15.316;2022-07-24T02:57:01;18.50;99.90
21799;DHT22;24973;47.178;15.316;2022-07-24T02:59:49;18.50;99.90
21799;DHT22;24973;47.178;15.316;2022-07-24T03:02:41;18.40;99.90
21799;DHT22;24973;47.178;15.316;2022-07-24T03:05:30;18.50;99.90
21799;DHT22;24973;47.178;15.316;2022-07-24T03:08:19;18.50;99.90
21799;DHT22;24973;47.178;15.316;2022-07-24T03:11:08;18.50;99.90
21799;DHT22;24973;47.178;15.316;2022-07-24T03:13:56;18.50;99.90
21799;DHT22;24973;47.178;15.316;2022-07-24T03:16:45;18.50;99.90
21799;DHT22;24973;47.178;15.316;2022-07-24T03:19:35;18.50;99.90
21799;DHT22;24973;47.178;15.316;2022-07-24T03:22:24;18.40;99.90
21799;DHT22;24973;47.178;15.316;2022-07-24T03:25:13;18.40;99.90
21799;DHT22;24973;47.178;15.316;2022-07-24T03:28:02;18.40;99.90
21799;DHT22;24973;47.178;15.316;2022-07-24T03:30:51;18.40;99.90
21799;DHT22;24973;47.178;15.316;2022-07-24T03:33:40;18.50;99.90
21799;DHT22;24973;47.178;15.316;2022-07-24T03:36:30;18.50;99.90
21799;DHT22;24973;47.178;15.316;2022-07-24T03:39:19;18.40;99.90
21799;DHT22;24973;47.178;15.316;2022-07-24T03:42:08;18.50;99.90
21799;DHT22;24973;47.178;15.316;2022-07-24T03:44:56;18.50;99.90
21799;DHT22;24973;47.178;15.316;2022-07-24T03:47:45;18.50;99.90
21799;DHT22;24973;47.178;15.316;2022-07-24T03:50:34;18.40;99.90
21799;DHT22;24973;47.178;15.316;2022-07-24T03:53:24;18.40;99.90
21799;DHT22;24973;47.178;15.316;2022-07-24T03:56:13;18.40;99.90
21799;DHT22;24973;47.178;15.316;2022-07-24T03:59:02;18.40;99.90
21799;DHT22;24973;47.178;15.316;2022-07-24T04:01:51;18.40;99.90
21799;DHT22;24973;47.178;15.316;2022-07-24T04:04:40;18.50;99.90
21799;DHT22;24973;47.178;15.316;2022-07-24T04:07:29;18.40;99.90
21799;DHT22;24973;47.178;15.316;2022-07-24T04:10:19;18.50;99.90
21799;DHT22;24973;47.178;15.316;2022-07-24T04:13:07;18.40;99.90
21799;DHT22;24973;47.178;15.316;2022-07-24T04:15:57;18.40;99.90
21799;DHT22;24973;47.178;15.316;2022-07-24T04:18:46;18.50;99.90
21799;DHT22;24973;47.178;15.316;2022-07-24T04:21:35;18.40;99.90
21799;DHT22;24973;47.178;15.316;2022-07-24T04:24:23;18.50;99.90
21799;DHT22;24973;47.178;15.316;2022-07-24T04:27:14;18.50;99.90
21799;DHT22;24973;47.178;15.316;2022-07-24T04:30:03;18.40;99.90
21799;DHT22;24973;47.178;15.316;2022-07-24T04:32:53;18.40;99.90
21799;DHT22;24973;47.178;15.316;2022-07-24T04:35:42;18.40;99.90
21799;DHT22;24973;47.178;15.316;2022-07-24T04:38:31;18.50;99.90
21799;DHT22;24973;47.178;15.316;2022-07-24T04:41:20;18.40;99.90
21799;DHT22;24973;47.178;15.316;2022-07-24T04:44:10;18.50;99.90
21799;DHT22;24973;47.178;15.316;2022-07-24T04:46:59;18.50;99.90
21799;DHT22;24973;47.178;15.316;2022-07-24T04:49:48;18.40;99.90
21799;DHT22;24973;47.178;15.316;2022-07-24T04:52:37;18.40;99.90
21799;DHT22;24973;47.178;15.316;2022-07-24T04:55:25;18.30;99.90
21799;DHT22;24973;47.178;15.316;2022-07-24T04:58:15;18.30;99.90
21799;DHT22;24973;47.178;15.316;2022-07-24T05:01:05;18.30;99.90
21799;DHT22;24973;47.178;15.316;2022-07-24T05:03:54;18.30;99.90
21799;DHT22;24973;47.178;15.316;2022-07-24T05:06:45;18.40;99.90
21799;DHT22;24973;47.178;15.316;2022-07-24T05:09:34;18.40;99.90
21799;DHT22;24973;47.178;15.316;2022-07-24T05:12:23;18.40;99.90
21799;DHT22;24973;47.178;15.316;2022-07-24T05:15:12;18.50;99.90
21799;DHT22;24973;47.178;15.316;2022-07-24T05:18:02;18.40;99.90
21799;DHT22;24973;47.178;15.316;2022-07-24T05:20:51;18.50;99.90
21799;DHT22;24973;47.178;15.316;2022-07-24T05:23:40;18.60;99.90
21799;DHT22;24973;47.178;15.316;2022-07-24T05:26:30;18.70;99.90
21799;DHT22;24973;47.178;15.316;2022-07-24T05:29:19;18.80;99.90
21799;DHT22;24973;47.178;15.316;2022-07-24T05:32:08;18.90;99.90
21799;DHT22;24973;47.178;15.316;2022-07-24T05:34:59;19.00;99.90
21799;DHT22;24973;47.178;15.316;2022-07-24T05:37:47;19.00;99.90
21799;DHT22;24973;47.178;15.316;2022-07-24T05:40:36;19.10;99.90
21799;DHT22;24973;47.178;15.316;2022-07-24T05:43:25;19.20;99.90
21799;DHT22;24973;47.178;15.316;2022-07-24T05:46:13;19.30;99.90
21799;DHT22;24973;47.178;15.316;2022-07-24T05:49:04;19.40;99.90
21799;DHT22;24973;47.178;15.316;2022-07-24T05:51:54;19.40;99.90
21799;DHT22;24973;47.178;15.316;2022-07-24T05:54:43;19.50;99.90
21799;DHT22;24973;47.178;15.316;2022-07-24T05:57:32;19.50;99.90
21799;DHT22;24973;47.178;15.316;2022-07-24T06:00:20;19.50;99.90
21799;DHT22;24973;47.178;15.316;2022-07-24T06:03:09;19.50;99.90
21799;DHT22;24973;47.178;15.316;2022-07-24T06:05:58;19.30;99.90
21799;DHT22;24973;47.178;15.316;2022-07-24T06:08:48;19.60;99.90
21799;DHT22;24973;47.178;15.316;2022-07-24T06:11:37;20.40;99.90
21799;DHT22;24973;47.178;15.316;2022-07-24T06:14:26;19.80;99.90
21799;DHT22;24973;47.178;15.316;2022-07-24T06:17:15;19.90;99.90
21799;DHT22;24973;47.178;15.316;2022-07-24T06:20:05;20.00;99.90
21799;DHT22;24973;47.178;15.316;2022-07-24T06:22:54;20.10;99.90
21799;DHT22;24973;47.178;15.316;2022-07-24T06:25:44;20.30;99.90
21799;DHT22;24973;47.178;15.316;2022-07-24T06:28:32;20.40;99.90
21799;DHT22;24973;47.178;15.316;2022-07-24T06:31:21;20.50;99.90
21799;DHT22;24973;47.178;15.316;2022-07-24T06:34:10;20.50;99.90
21799;DHT22;24973;47.178;15.316;2022-07-24T06:36:59;20.50;99.90
21799;DHT22;24973;47.178;15.316;2022-07-24T06:39:47;20.60;99.90
21799;DHT22;24973;47.178;15.316;2022-07-24T06:42:37;20.70;99.90
21799;DHT22;24973;47.178;15.316;2022-07-24T06:45:26;20.80;99.90
21799;DHT22;24973;47.178;15.316;2022-07-24T06:48:18;20.80;99.90
21799;DHT22;24973;47.178;15.316;2022-07-24T06:51:07;20.90;99.90
21799;DHT22;24973;47.178;15.316;2022-07-24T06:53:55;21.00;99.90
21799;DHT22;24973;47.178;15.316;2022-07-24T06:56:44;21.10;99.90
21799;DHT22;24973;47.178;15.316;2022-07-24T06:59:37;21.10;99.90
21799;DHT22;24973;47.178;15.316;2022-07-24T07:02:26;21.20;99.90
21799;DHT22;24973;47.178;15.316;2022-07-24T07:05:14;21.20;99.90
21799;DHT22;24973;47.178;15.316;2022-07-24T07:08:04;21.30;99.90
21799;DHT22;24973;47.178;15.316;2022-07-24T07:10:53;21.30;99.90
21799;DHT22;24973;47.178;15.316;2022-07-24T07:13:41;21.50;99.90
21799;DHT22;24973;47.178;15.316;2022-07-24T07:16:31;21.50;99.90
21799;DHT22;24973;47.178;15.316;2022-07-24T07:19:20;21.50;99.90
21799;DHT22;24973;47.178;15.316;2022-07-24T07:22:09;21.50;99.90
21799;DHT22;24973;47.178;15.316;2022-07-24T07:24:58;21.70;99.90
21799;DHT22;24973;47.178;15.316;2022-07-24T07:27:47;21.90;99.90
21799;DHT22;24973;47.178;15.316;2022-07-24T07:30:36;22.20;99.90
21799;DHT22;24973;47.178;15.316;2022-07-24T07:33:26;22.40;99.90
21799;DHT22;24973;47.178;15.316;2022-07-24T07:36:15;22.50;99.90
21799;DHT22;24973;47.178;15.316;2022-07-24T07:39:04;22.50;99.90
21799;DHT22;24973;47.178;15.316;2022-07-24T07:41:53;22.60;99.90
21799;DHT22;24973;47.178;15.316;2022-07-24T07:44:41;22.70;99.90
21799;DHT22;24973;47.178;15.316;2022-07-24T07:47:30;22.80;99.90
21799;DHT22;24973;47.178;15.316;2022-07-24T07:50:20;22.80;99.90
21799;DHT22;24973;47.178;15.316;2022-07-24T07:53:09;23.00;99.90
21799;DHT22;24973;47.178;15.316;2022-07-24T07:55:58;23.10;99.90
21799;DHT22;24973;47.178;15.316;2022-07-24T07:58:46;23.30;99.90
21799;DHT22;24973;47.178;15.316;2022-07-24T08:01:35;23.40;99.90
21799;DHT22;24973;47.178;15.316;2022-07-24T08:04:24;23.50;99.90
21799;DHT22;24973;47.178;15.316;2022-07-24T08:07:14;23.70;99.90
21799;DHT22;24973;47.178;15.316;2022-07-24T08:10:03;23.90;99.90
21799;DHT22;24973;47.178;15.316;2022-07-24T08:12:53;24.10;99.90
21799;DHT22;24973;47.178;15.316;2022-07-24T08:15:41;24.30;99.90
21799;DHT22;24973;47.178;15.316;2022-07-24T08:18:30;24.40;99.90
21799;DHT22;24973;47.178;15.316;2022-07-24T08:21:19;24.60;99.90
21799;DHT22;24973;47.178;15.316;2022-07-24T08:24:10;24.80;99.90
21799;DHT22;24973;47.178;15.316;2022-07-24T08:26:59;25.00;99.90
21799;DHT22;24973;47.178;15.316;2022-07-24T08:29:48;25.20;99.90
21799;DHT22;24973;47.178;15.316;2022-07-24T08:32:37;25.40;99.90
21799;DHT22;24973;47.178;15.316;2022-07-24T08:35:26;25.60;99.90
21799;DHT22;24973;47.178;15.316;2022-07-24T08:38:18;25.60;99.90
21799;DHT22;24973;47.178;15.316;2022-07-24T08:41:09;25.80;99.90
21799;DHT22;24973;47.178;15.316;2022-07-24T08:43:58;25.80;99.90
21799;DHT22;24973;47.178;15.316;2022-07-24T08:46:47;25.80;99.90
21799;DHT22;24973;47.178;15.316;2022-07-24T08:49:38;26.00;99.90
21799;DHT22;24973;47.178;15.316;2022-07-24T08:52:28;26.20;99.90
21799;DHT22;24973;47.178;15.316;2022-07-24T08:55:17;26.30;99.90
21799;DHT22;24973;47.178;15.316;2022-07-24T08:58:07;26.50;99.90
21799;DHT22;24973;47.178;15.316;2022-07-24T09:00:55;26.70;99.90
21799;DHT22;24973;47.178;15.316;2022-07-24T09:03:46;26.90;99.90
21799;DHT22;24973;47.178;15.316;2022-07-24T09:06:35;27.00;99.90
21799;DHT22;24973;47.178;15.316;2022-07-24T09:09:24;27.10;99.90
21799;DHT22;24973;47.178;15.316;2022-07-24T09:12:15;27.30;99.90
21799;DHT22;24973;47.178;15.316;2022-07-24T09:15:13;27.50;99.90
21799;DHT22;24973;47.178;15.316;2022-07-24T09:18:03;27.60;99.90
21799;DHT22;24973;47.178;15.316;2022-07-24T09:20:52;27.70;99.90
21799;DHT22;24973;47.178;15.316;2022-07-24T09:23:41;27.80;99.90
21799;DHT22;24973;47.178;15.316;2022-07-24T09:26:43;27.80;99.90
21799;DHT22;24973;47.178;15.316;2022-07-24T09:29:33;27.90;99.90
21799;DHT22;24973;47.178;15.316;2022-07-24T09:32:24;27.90;99.90
21799;DHT22;24973;47.178;15.316;2022-07-24T09:35:14;28.00;99.90
21799;DHT22;24973;47.178;15.316;2022-07-24T09:38:05;28.10;99.90
21799;DHT22;24973;47.178;15.316;2022-07-24T09:40:56;28.20;99.90
21799;DHT22;24973;47.178;15.316;2022-07-24T09:43:56;28.30;99.90
21799;DHT22;24973;47.178;15.316;2022-07-24T09:46:47;28.40;99.90
21799;DHT22;24973;47.178;15.316;2022-07-24T09:49:38;28.70;99.90
21799;DHT22;24973;47.178;15.316;2022-07-24T09:52:32;28.90;99.90
21799;DHT22;24973;47.178;15.316;2022-07-24T09:55:23;29.00;99.90
21799;DHT22;24973;47.178;15.316;2022-07-24T09:58:17;29.10;99.90
21799;DHT22;24973;47.178;15.316;2022-07-24T10:01:07;28.90;99.90
21799;DHT22;24973;47.178;15.316;2022-07-24T10:03:57;28.90;99.90
21799;DHT22;24973;47.178;15.316;2022-07-24T10:06:50;28.80;99.90
21799;DHT22;24973;47.178;15.316;2022-07-24T10:09:42;28.60;99.90
21799;DHT22;24973;47.178;15.316;2022-07-24T10:12:32;28.30;98.50
21799;DHT22;24973;47.178;15.316;2022-07-24T10:15:21;28.40;99.70
21799;DHT22;24973;47.178;15.316;2022-07-24T10:18:17;28.90;99.90
21799;DHT22;24973;47.178;15.316;2022-07-24T10:21:08;29.30;99.90
21799;DHT22;24973;47.178;15.316;2022-07-24T10:27:51;29.50;97.20
21799;DHT22;24973;47.178;15.316;2022-07-24T10:30:42;29.40;97.00
21799;DHT22;24973;47.178;15.316;2022-07-24T10:33:36;29.20;97.70
21799;DHT22;24973;47.178;15.316;2022-07-24T10:36:30;29.10;98.10
21799;DHT22;24973;47.178;15.316;2022-07-24T10:39:28;28.90;97.80
21799;DHT22;24973;47.178;15.316;2022-07-24T10:42:19;28.80;97.60
21799;DHT22;24973;47.178;15.316;2022-07-24T10:45:16;28.60;97.80
21799;DHT22;24973;47.178;15.316;2022-07-24T10:48:29;28.40;96.90
21799;DHT22;24973;47.178;15.316;2022-07-24T10:51:20;28.40;96.60
21799;DHT22;24973;47.178;15.316;2022-07-24T10:54:17;28.20;96.90
21799;DHT22;24973;47.178;15.316;2022-07-24T10:57:08;28.10;96.30
21799;DHT22;24973;47.178;15.316;2022-07-24T10:59:57;28.00;96.80
21799;DHT22;24973;47.178;15.316;2022-07-24T11:02:55;27.90;96.60
21799;DHT22;24973;47.178;15.316;2022-07-24T11:06:05;27.90;96.10
21799;DHT22;24973;47.178;15.316;2022-07-24T11:09:01;27.70;96.70
21799;DHT22;24973;47.178;15.316;2022-07-24T11:12:05;27.60;96.10
21799;DHT22;24973;47.178;15.316;2022-07-24T11:14:58;28.00;97.90
21799;DHT22;24973;47.178;15.316;2022-07-24T11:18:13;28.60;99.30
21799;DHT22;24973;47.178;15.316;2022-07-24T11:21:02;29.10;96.40
21799;DHT22;24973;47.178;15.316;2022-07-24T11:24:15;29.70;94.60
21799;DHT22;24973;47.178;15.316;2022-07-24T11:27:13;30.20;95.90
21799;DHT22;24973;47.178;15.316;2022-07-24T11:30:07;30.20;90.90
21799;DHT22;24973;47.178;15.316;2022-07-24T11:32:58;29.90;91.10
21799;DHT22;24973;47.178;15.316;2022-07-24T11:35:47;30.10;91.60
21799;DHT22;24973;47.178;15.316;2022-07-24T11:38:37;30.00;92.90
21799;DHT22;24973;47.178;15.316;2022-07-24T11:41:26;29.90;91.20
21799;DHT22;24973;47.178;15.316;2022-07-24T11:44:21;30.30;91.10
21799;DHT22;24973;47.178;15.316;2022-07-24T11:47:14;30.00;90.20
21799;DHT22;24973;47.178;15.316;2022-07-24T11:50:06;30.00;89.20
21799;DHT22;24973;47.178;15.316;2022-07-24T11:52:56;29.80;88.50
21799;DHT22;24973;47.178;15.316;2022-07-24T11:55:45;29.40;91.90
21799;DHT22;24973;47.178;15.316;2022-07-24T11:58:37;29.00;91.50
21799;DHT22;24973;47.178;15.316;2022-07-24T12:01:26;28.80;92.30
21799;DHT22;24973;47.178;15.316;2022-07-24T12:04:20;28.70;92.30
21799;DHT22;24973;47.178;15.316;2022-07-24T12:07:11;28.60;93.30
21799;DHT22;24973;47.178;15.316;2022-07-24T12:10:01;28.90;92.30
21799;DHT22;24973;47.178;15.316;2022-07-24T12:12:52;29.30;92.20
21799;DHT22;24973;47.178;15.316;2022-07-24T12:15:42;29.70;91.40
21799;DHT22;24973;47.178;15.316;2022-07-24T12:18:31;30.10;91.40
21799;DHT22;24973;47.178;15.316;2022-07-24T12:21:23;30.20;90.30
21799;DHT22;24973;47.178;15.316;2022-07-24T12:24:12;30.60;88.40
21799;DHT22;24973;47.178;15.316;2022-07-24T12:27:00;31.10;88.20
21799;DHT22;24973;47.178;15.316;2022-07-24T12:29:49;31.00;85.40
21799;DHT22;24973;47.178;15.316;2022-07-24T12:32:52;30.80;84.20
21799;DHT22;24973;47.178;15.316;2022-07-24T12:36:00;30.90;83.50
21799;DHT22;24973;47.178;15.316;2022-07-24T12:38:57;31.00;84.00
21799;DHT22;24973;47.178;15.316;2022-07-24T12:41:46;31.00;82.70
21799;DHT22;24973;47.178;15.316;2022-07-24T12:44:40;30.90;82.00
21799;DHT22;24973;47.178;15.316;2022-07-24T12:47:30;31.00;84.70
21799;DHT22;24973;47.178;15.316;2022-07-24T12:50:19;31.30;81.50
21799;DHT22;24973;47.178;15.316;2022-07-24T12:53:20;31.30;81.10
21799;DHT22;24973;47.178;15.316;2022-07-24T12:56:13;31.90;81.60
21799;DHT22;24973;47.178;15.316;2022-07-24T12:59:03;32.00;77.50
21799;DHT22;24973;47.178;15.316;2022-07-24T13:01:56;32.00;78.10
21799;DHT22;24973;47.178;15.316;2022-07-24T13:04:48;32.10;76.50
21799;DHT22;24973;47.178;15.316;2022-07-24T13:07:38;32.70;75.30
21799;DHT22;24973;47.178;15.316;2022-07-24T13:10:27;33.30;80.50
21799;DHT22;24973;47.178;15.316;2022-07-24T13:13:17;33.50;76.50
21799;DHT22;24973;47.178;15.316;2022-07-24T13:16:06;33.80;77.20
21799;DHT22;24973;47.178;15.316;2022-07-24T13:18:55;33.80;74.10
21799;DHT22;24973;47.178;15.316;2022-07-24T13:21:45;33.90;71.50
21799;DHT22;24973;47.178;15.316;2022-07-24T13:24:34;33.60;70.80
21799;DHT22;24973;47.178;15.316;2022-07-24T13:27:24;33.20;71.40
21799;DHT22;24973;47.178;15.316;2022-07-24T13:30:14;33.10;72.70
21799;DHT22;24973;47.178;15.316;2022-07-24T13:33:03;33.50;72.30
21799;DHT22;24973;47.178;15.316;2022-07-24T13:35:52;33.90;68.70
21799;DHT22;24973;47.178;15.316;2022-07-24T13:38:41;34.30;71.80
21799;DHT22;24973;47.178;15.316;2022-07-24T13:41:30;34.90;69.80
21799;DHT22;24973;47.178;15.316;2022-07-24T13:44:19;35.20;69.80
21799;DHT22;24973;47.178;15.316;2022-07-24T13:47:09;35.50;71.00
21799;DHT22;24973;47.178;15.316;2022-07-24T13:49:57;35.90;68.30
21799;DHT22;24973;47.178;15.316;2022-07-24T13:52:46;36.00;63.60
21799;DHT22;24973;47.178;15.316;2022-07-24T13:55:35;35.80;63.60
21799;DHT22;24973;47.178;15.316;2022-07-24T13:58:24;34.90;61.20
21799;DHT22;24973;47.178;15.316;2022-07-24T14:01:13;34.40;64.40
21799;DHT22;24973;47.178;15.316;2022-07-24T14:04:06;34.10;64.00
21799;DHT22;24973;47.178;15.316;2022-07-24T14:07:13;33.80;64.00
21799;DHT22;24973;47.178;15.316;2022-07-24T14:10:02;33.30;65.10
21799;DHT22;24973;47.178;15.316;2022-07-24T14:12:51;33.10;66.00
21799;DHT22;24973;47.178;15.316;2022-07-24T14:15:40;32.90;64.80
21799;DHT22;24973;47.178;15.316;2022-07-24T14:18:29;32.00;66.00
21799;DHT22;24973;47.178;15.316;2022-07-24T14:21:19;31.10;68.70
21799;DHT22;24973;47.178;15.316;2022-07-24T14:24:08;30.90;70.20
21799;DHT22;24973;47.178;15.316;2022-07-24T14:27:01;31.50;70.40
21799;DHT22;24973;47.178;15.316;2022-07-24T14:29:49;32.00;68.40
21799;DHT22;24973;47.178;15.316;2022-07-24T14:32:38;32.30;67.50
21799;DHT22;24973;47.178;15.316;2022-07-24T14:35:27;32.70;66.70
21799;DHT22;24973;47.178;15.316;2022-07-24T14:38:19;32.90;64.50
21799;DHT22;24973;47.178;15.316;2022-07-24T14:41:08;33.50;65.90
21799;DHT22;24973;47.178;15.316;2022-07-24T14:43:56;33.90;63.60
21799;DHT22;24973;47.178;15.316;2022-07-24T14:46:48;34.10;62.20
21799;DHT22;24973;47.178;15.316;2022-07-24T14:49:37;33.80;62.20
21799;DHT22;24973;47.178;15.316;2022-07-24T14:52:25;33.50;61.60
21799;DHT22;24973;47.178;15.316;2022-07-24T14:55:16;33.50;61.80
21799;DHT22;24973;47.178;15.316;2022-07-24T14:58:04;33.70;61.10
21799;DHT22;24973;47.178;15.316;2022-07-24T15:00:53;33.90;63.80
21799;DHT22;24973;47.178;15.316;2022-07-24T15:03:42;33.90;62.90
21799;DHT22;24973;47.178;15.316;2022-07-24T15:06:31;34.00;62.90
21799;DHT22;24973;47.178;15.316;2022-07-24T15:09:19;34.20;63.20
21799;DHT22;24973;47.178;15.316;2022-07-24T15:12:09;34.20;61.90
21799;DHT22;24973;47.178;15.316;2022-07-24T15:14:58;34.60;62.50
21799;DHT22;24973;47.178;15.316;2022-07-24T15:17:47;35.20;64.50
21799;DHT22;24973;47.178;15.316;2022-07-24T15:20:35;36.00;64.60
21799;DHT22;24973;47.178;15.316;2022-07-24T15:23:24;36.70;61.30
21799;DHT22;24973;47.178;15.316;2022-07-24T15:26:13;37.00;59.60
21799;DHT22;24973;47.178;15.316;2022-07-24T15:29:03;37.20;57.70
21799;DHT22;24973;47.178;15.316;2022-07-24T15:31:52;36.90;58.50
21799;DHT22;24973;47.178;15.316;2022-07-24T15:34:41;36.50;58.80
21799;DHT22;24973;47.178;15.316;2022-07-24T15:37:30;36.10;59.90
21799;DHT22;24973;47.178;15.316;2022-07-24T15:40:18;35.50;61.10
21799;DHT22;24973;47.178;15.316;2022-07-24T15:43:07;35.00;62.50
21799;DHT22;24973;47.178;15.316;2022-07-24T15:45:57;34.50;63.50
21799;DHT22;24973;47.178;15.316;2022-07-24T15:48:46;34.00;64.20
21799;DHT22;24973;47.178;15.316;2022-07-24T15:51:35;33.50;64.30
21799;DHT22;24973;47.178;15.316;2022-07-24T15:54:24;33.50;65.70
21799;DHT22;24973;47.178;15.316;2022-07-24T15:57:13;33.80;65.00
21799;DHT22;24973;47.178;15.316;2022-07-24T16:00:03;33.70;64.70
21799;DHT22;24973;47.178;15.316;2022-07-24T16:02:55;33.30;65.10
21799;DHT22;24973;47.178;15.316;2022-07-24T16:05:43;32.90;67.00
21799;DHT22;24973;47.178;15.316;2022-07-24T16:08:32;32.60;68.50
21799;DHT22;24973;47.178;15.316;2022-07-24T16:11:21;32.30;68.70
21799;DHT22;24973;47.178;15.316;2022-07-24T16:14:10;31.80;69.00
21799;DHT22;24973;47.178;15.316;2022-07-24T16:16:58;31.30;70.00
21799;DHT22;24973;47.178;15.316;2022-07-24T16:19:49;31.00;72.80
21799;DHT22;24973;47.178;15.316;2022-07-24T16:22:37;30.70;75.50
21799;DHT22;24973;47.178;15.316;2022-07-24T16:25:26;30.50;76.10
21799;DHT22;24973;47.178;15.316;2022-07-24T16:28:15;30.30;76.80
21799;DHT22;24973;47.178;15.316;2022-07-24T16:31:04;30.10;78.10
21799;DHT22;24973;47.178;15.316;2022-07-24T16:33:54;29.90;77.20
21799;DHT22;24973;47.178;15.316;2022-07-24T16:36:44;29.70;77.50
21799;DHT22;24973;47.178;15.316;2022-07-24T16:39:32;29.60;81.50
21799;DHT22;24973;47.178;15.316;2022-07-24T16:42:29;29.40;79.90
21799;DHT22;24973;47.178;15.316;2022-07-24T16:45:18;29.20;80.30
21799;DHT22;24973;47.178;15.316;2022-07-24T16:48:17;29.10;80.70
21799;DHT22;24973;47.178;15.316;2022-07-24T16:51:06;29.00;83.40
21799;DHT22;24973;47.178;15.316;2022-07-24T16:54:07;28.80;83.00
21799;DHT22;24973;47.178;15.316;2022-07-24T16:56:56;28.70;83.90
21799;DHT22;24973;47.178;15.316;2022-07-24T16:59:45;28.60;84.50
21799;DHT22;24973;47.178;15.316;2022-07-24T17:02:33;28.50;84.20
21799;DHT22;24973;47.178;15.316;2022-07-24T17:05:22;28.40;82.70
21799;DHT22;24973;47.178;15.316;2022-07-24T17:08:11;28.30;83.60
21799;DHT22;24973;47.178;15.316;2022-07-24T17:11:01;28.20;86.50
21799;DHT22;24973;47.178;15.316;2022-07-24T17:13:50;28.10;84.80
21799;DHT22;24973;47.178;15.316;2022-07-24T17:16:39;28.00;85.00
21799;DHT22;24973;47.178;15.316;2022-07-24T17:19:28;27.90;85.50
21799;DHT22;24973;47.178;15.316;2022-07-24T17:22:18;27.90;87.90
21799;DHT22;24973;47.178;15.316;2022-07-24T17:25:09;27.80;90.40
21799;DHT22;24973;47.178;15.316;2022-07-24T17:28:00;27.80;91.70
21799;DHT22;24973;47.178;15.316;2022-07-24T17:30:49;27.70;92.40
21799;DHT22;24973;47.178;15.316;2022-07-24T17:33:39;27.50;93.00
21799;DHT22;24973;47.178;15.316;2022-07-24T17:36:27;27.40;94.20
21799;DHT22;24973;47.178;15.316;2022-07-24T17:39:16;27.30;94.70
21799;DHT22;24973;47.178;15.316;2022-07-24T17:42:05;27.20;94.90